sensor_id;sensor_type;location;lat;lon;timestamp;temperature;humidity
939;DHT22;456;53.584;9.968;2024-01-11T14:39:12;16.20;12.20
939;DHT22;456;53.584;9.968;2024-01-11T14:41:39;17.90;30.70
939;DHT22;456;53.584;9.968;2024-01-11T14:44:05;17.30;27.20
939;DHT22;456;53.584;9.968;2024-01-11T14:46:30;17.40;26.70
939;DHT22;456;53.584;9.968;2024-01-11T14:48:56;17.30;26.80
939;DHT22;456;53.584;9.968;2024-01-11T14:51:21;17.40;27.90
939;DHT22;456;53.584;9.968;2024-01-11T14:53:47;17.50;26.60
939;DHT22;456;53.584;9.968;2024-01-11T14:56:13;17.40;26.10
939;DHT22;456;53.584;9.968;2024-01-11T14:58:38;17.30;25.90
939;DHT22;456;53.584;9.968;2024-01-11T15:01:04;17.40;25.80
939;DHT22;456;53.584;9.968;2024-01-11T15:03:30;17.30;25.60
939;DHT22;456;53.584;9.968;2024-01-11T15:05:56;17.50;26.00
939;DHT22;456;53.584;9.968;2024-01-11T15:08:21;17.40;26.70
939;DHT22;456;53.584;9.968;2024-01-11T15:10:48;17.30;28.70
939;DHT22;456;53.584;9.968;2024-01-11T15:13:13;17.30;30.60
939;DHT22;456;53.584;9.968;2024-01-11T15:15:39;17.40;32.00
939;DHT22;456;53.584;9.968;2024-01-11T15:18:05;17.00;33.50
939;DHT22;456;53.584;9.968;2024-01-11T15:20:31;17.30;32.70
939;DHT22;456;53.584;9.968;2024-01-11T15:22:56;17.30;30.20
939;DHT22;456;53.584;9.968;2024-01-11T15:25:22;17.00;28.20
939;DHT22;456;53.584;9.968;2024-01-11T15:27:49;16.90;27.60
939;DHT22;456;53.584;9.968;2024-01-11T15:30:15;16.80;27.40
939;DHT22;456;53.584;9.968;2024-01-11T15:32:41;17.00;27.50
939;DHT22;456;53.584;9.968;2024-01-11T15:35:07;17.10;27.70
939;DHT22;456;53.584;9.968;2024-01-11T15:37:33;17.10;27.70
939;DHT22;456;53.584;9.968;2024-01-11T15:40:03;17.30;27.70
939;DHT22;456;53.584;9.968;2024-01-11T15:42:32;17.20;27.60
939;DHT22;456;53.584;9.968;2024-01-11T15:44:57;17.40;27.50
939;DHT22;456;53.584;9.968;2024-01-11T15:47:23;17.30;27.50
939;DHT22;456;53.584;9.968;2024-01-11T15:49:53;17.40;28.10
939;DHT22;456;53.584;9.968;2024-01-11T15:52:28;17.50;27.60
939;DHT22;456;53.584;9.968;2024-01-11T15:54:55;17.50;27.50
939;DHT22;456;53.584;9.968;2024-01-11T15:57:22;17.40;27.50
939;DHT22;456;53.584;9.968;2024-01-11T15:59:49;17.40;27.50
939;DHT22;456;53.584;9.968;2024-01-11T16:02:14;17.40;27.40
939;DHT22;456;53.584;9.968;2024-01-11T16:04:41;17.50;27.50
939;DHT22;456;53.584;9.968;2024-01-11T16:07:09;17.50;27.60
939;DHT22;456;53.584;9.968;2024-01-11T16:09:35;17.40;27.50
939;DHT22;456;53.584;9.968;2024-01-11T16:12:00;17.50;27.70
939;DHT22;456;53.584;9.968;2024-01-11T16:14:26;17.50;27.70
939;DHT22;456;53.584;9.968;2024-01-11T16:16:52;17.50;27.80
939;DHT22;456;53.584;9.968;2024-01-11T16:19:18;17.40;27.60
939;DHT22;456;53.584;9.968;2024-01-11T16:21:43;17.50;27.60
939;DHT22;456;53.584;9.968;2024-01-11T16:24:09;17.50;27.60
939;DHT22;456;53.584;9.968;2024-01-11T16:26:34;17.40;27.50
939;DHT22;456;53.584;9.968;2024-01-11T16:29:00;17.40;27.50
939;DHT22;456;53.584;9.968;2024-01-11T16:31:26;17.50;27.70
939;DHT22;456;53.584;9.968;2024-01-11T16:33:52;17.40;27.50
939;DHT22;456;53.584;9.968;2024-01-11T16:36:17;17.40;27.50
939;DHT22;456;53.584;9.968;2024-01-11T16:38:43;17.50;27.70
939;DHT22;456;53.584;9.968;2024-01-11T16:41:09;17.50;27.70
939;DHT22;456;53.584;9.968;2024-01-11T16:43:35;17.40;27.60
939;DHT22;456;53.584;9.968;2024-01-11T16:46:01;17.50;27.80
939;DHT22;456;53.584;9.968;2024-01-11T16:48:26;17.50;27.80
939;DHT22;456;53.584;9.968;2024-01-11T16:50:53;17.40;27.90
939;DHT22;456;53.584;9.968;2024-01-11T16:53:19;17.50;28.20
939;DHT22;456;53.584;9.968;2024-01-11T16:55:46;17.50;28.30
939;DHT22;456;53.584;9.968;2024-01-11T16:58:11;17.40;28.80
939;DHT22;456;53.584;9.968;2024-01-11T17:03:09;17.60;37.60
939;DHT22;456;53.584;9.968;2024-01-11T17:05:35;17.40;35.20
939;DHT22;456;53.584;9.968;2024-01-11T17:08:04;17.50;33.30
939;DHT22;456;53.584;9.968;2024-01-11T17:10:32;17.40;32.50
939;DHT22;456;53.584;9.968;2024-01-11T17:13:00;17.50;31.90
939;DHT22;456;53.584;9.968;2024-01-11T17:15:26;17.50;31.70
939;DHT22;456;53.584;9.968;2024-01-11T17:17:54;17.60;31.60
939;DHT22;456;53.584;9.968;2024-01-11T17:20:20;17.50;31.30
939;DHT22;456;53.584;9.968;2024-01-11T17:22:46;17.60;31.40
939;DHT22;456;53.584;9.968;2024-01-11T17:25:11;17.50;31.40
939;DHT22;456;53.584;9.968;2024-01-11T17:27:37;17.50;31.10
939;DHT22;456;53.584;9.968;2024-01-11T17:30:03;17.50;31.00
939;DHT22;456;53.584;9.968;2024-01-11T17:32:28;17.60;30.80
939;DHT22;456;53.584;9.968;2024-01-11T17:34:54;17.60;30.70
939;DHT22;456;53.584;9.968;2024-01-11T17:37:23;17.50;31.00
939;DHT22;456;53.584;9.968;2024-01-11T17:39:51;17.50;30.80
939;DHT22;456;53.584;9.968;2024-01-11T17:42:17;17.40;30.60
939;DHT22;456;53.584;9.968;2024-01-11T17:44:52;17.40;30.90
939;DHT22;456;53.584;9.968;2024-01-11T17:47:19;17.50;31.80
939;DHT22;456;53.584;9.968;2024-01-11T17:49:45;17.50;32.80
939;DHT22;456;53.584;9.968;2024-01-11T17:52:11;17.50;30.70
939;DHT22;456;53.584;9.968;2024-01-11T17:54:38;17.50;31.10
939;DHT22;456;53.584;9.968;2024-01-11T17:57:03;17.50;31.10
939;DHT22;456;53.584;9.968;2024-01-11T17:59:29;17.50;31.00
939;DHT22;456;53.584;9.968;2024-01-11T18:01:56;17.50;30.40
939;DHT22;456;53.584;9.968;2024-01-11T18:04:22;17.60;29.90
939;DHT22;456;53.584;9.968;2024-01-11T18:06:48;17.50;29.60
939;DHT22;456;53.584;9.968;2024-01-11T18:09:13;17.40;28.60
939;DHT22;456;53.584;9.968;2024-01-11T18:11:42;17.50;28.50
939;DHT22;456;53.584;9.968;2024-01-11T18:14:10;17.50;28.30
939;DHT22;456;53.584;9.968;2024-01-11T18:16:35;17.60;28.40
939;DHT22;456;53.584;9.968;2024-01-11T18:19:01;17.50;28.60
939;DHT22;456;53.584;9.968;2024-01-11T18:21:27;17.50;28.80
939;DHT22;456;53.584;9.968;2024-01-11T18:23:53;17.50;28.50
939;DHT22;456;53.584;9.968;2024-01-11T18:26:19;17.50;28.40
939;DHT22;456;53.584;9.968;2024-01-11T18:28:44;17.50;29.00
939;DHT22;456;53.584;9.968;2024-01-11T18:31:16;17.50;29.10
939;DHT22;456;53.584;9.968;2024-01-11T18:33:42;17.50;28.90
939;DHT22;456;53.584;9.968;2024-01-11T18:36:10;17.50;28.80
939;DHT22;456;53.584;9.968;2024-01-11T18:38:36;17.40;29.00
939;DHT22;456;53.584;9.968;2024-01-11T18:41:03;17.20;28.70
939;DHT22;456;53.584;9.968;2024-01-11T18:43:30;17.20;28.60
939;DHT22;456;53.584;9.968;2024-01-11T18:45:55;17.30;29.10
939;DHT22;456;53.584;9.968;2024-01-11T18:48:21;17.30;28.90
939;DHT22;456;53.584;9.968;2024-01-11T18:50:47;17.40;28.60
939;DHT22;456;53.584;9.968;2024-01-11T18:53:12;17.40;28.50
939;DHT22;456;53.584;9.968;2024-01-11T18:55:38;17.40;28.50
939;DHT22;456;53.584;9.968;2024-01-11T18:58:03;17.40;27.90
939;DHT22;456;53.584;9.968;2024-01-11T19:00:29;17.50;28.30
939;DHT22;456;53.584;9.968;2024-01-11T19:02:57;17.40;28.40
939;DHT22;456;53.584;9.968;2024-01-11T19:05:23;17.40;28.10
939;DHT22;456;53.584;9.968;2024-01-11T19:07:49;17.50;28.60
939;DHT22;456;53.584;9.968;2024-01-11T19:10:15;17.50;28.80
939;DHT22;456;53.584;9.968;2024-01-11T19:12:41;17.40;28.60
939;DHT22;456;53.584;9.968;2024-01-11T19:15:07;17.50;28.30
939;DHT22;456;53.584;9.968;2024-01-11T19:17:33;17.50;28.60
939;DHT22;456;53.584;9.968;2024-01-11T19:20:00;17.50;28.10
939;DHT22;456;53.584;9.968;2024-01-11T19:22:25;17.60;28.70
939;DHT22;456;53.584;9.968;2024-01-11T19:24:51;17.60;28.00
939;DHT22;456;53.584;9.968;2024-01-11T19:27:16;17.50;28.00
939;DHT22;456;53.584;9.968;2024-01-11T19:29:42;17.50;28.20
939;DHT22;456;53.584;9.968;2024-01-11T19:32:08;17.60;28.30
939;DHT22;456;53.584;9.968;2024-01-11T19:34:33;17.50;28.00
939;DHT22;456;53.584;9.968;2024-01-11T19:37:01;17.50;28.20
939;DHT22;456;53.584;9.968;2024-01-11T19:39:26;17.60;28.40
939;DHT22;456;53.584;9.968;2024-01-11T19:41:52;17.60;28.00
939;DHT22;456;53.584;9.968;2024-01-11T19:44:17;17.50;28.00
939;DHT22;456;53.584;9.968;2024-01-11T19:46:43;17.50;27.80
939;DHT22;456;53.584;9.968;2024-01-11T19:49:10;17.60;27.90
939;DHT22;456;53.584;9.968;2024-01-11T19:51:36;17.50;27.50
939;DHT22;456;53.584;9.968;2024-01-11T19:54:02;17.50;27.40
939;DHT22;456;53.584;9.968;2024-01-11T19:56:29;17.50;27.20
939;DHT22;456;53.584;9.968;2024-01-11T19:58:56;17.50;27.50
939;DHT22;456;53.584;9.968;2024-01-11T20:01:22;17.50;27.50
939;DHT22;456;53.584;9.968;2024-01-11T20:03:48;17.50;27.20
939;DHT22;456;53.584;9.968;2024-01-11T20:06:13;17.50;26.80
939;DHT22;456;53.584;9.968;2024-01-11T20:08:39;17.50;26.80
939;DHT22;456;53.584;9.968;2024-01-11T20:11:05;17.60;26.80
939;DHT22;456;53.584;9.968;2024-01-11T20:13:34;17.50;26.60
939;DHT22;456;53.584;9.968;2024-01-11T20:16:00;17.40;26.40
939;DHT22;456;53.584;9.968;2024-01-11T20:18:27;17.50;26.50
939;DHT22;456;53.584;9.968;2024-01-11T20:20:52;17.50;26.50
939;DHT22;456;53.584;9.968;2024-01-11T20:23:18;17.50;26.50
939;DHT22;456;53.584;9.968;2024-01-11T20:25:46;17.50;26.50
939;DHT22;456;53.584;9.968;2024-01-11T20:28:14;17.50;26.20
939;DHT22;456;53.584;9.968;2024-01-11T20:30:39;17.50;26.10
939;DHT22;456;53.584;9.968;2024-01-11T20:33:05;17.50;26.40
939;DHT22;456;53.584;9.968;2024-01-11T20:35:30;17.60;26.00
939;DHT22;456;53.584;9.968;2024-01-11T20:37:56;17.60;26.10
939;DHT22;456;53.584;9.968;2024-01-11T20:40:22;17.60;26.00
939;DHT22;456;53.584;9.968;2024-01-11T20:42:47;17.60;26.00
939;DHT22;456;53.584;9.968;2024-01-11T20:45:13;17.60;26.00
939;DHT22;456;53.584;9.968;2024-01-11T20:47:38;17.50;26.00
939;DHT22;456;53.584;9.968;2024-01-11T20:50:04;17.60;25.80
939;DHT22;456;53.584;9.968;2024-01-11T20:52:31;17.60;25.70
939;DHT22;456;53.584;9.968;2024-01-11T20:54:57;17.50;25.70
939;DHT22;456;53.584;9.968;2024-01-11T20:57:22;17.50;25.60
939;DHT22;456;53.584;9.968;2024-01-11T20:59:48;17.50;25.50
939;DHT22;456;53.584;9.968;2024-01-11T21:02:14;17.50;25.50
939;DHT22;456;53.584;9.968;2024-01-11T21:04:39;17.40;25.20
939;DHT22;456;53.584;9.968;2024-01-11T21:07:05;17.50;25.40
939;DHT22;456;53.584;9.968;2024-01-11T21:09:30;17.40;25.40
939;DHT22;456;53.584;9.968;2024-01-11T21:11:56;17.40;25.10
939;DHT22;456;53.584;9.968;2024-01-11T21:14:23;17.40;25.40
939;DHT22;456;53.584;9.968;2024-01-11T21:16:49;17.50;25.50
939;DHT22;456;53.584;9.968;2024-01-11T21:19:15;17.40;25.20
939;DHT22;456;53.584;9.968;2024-01-11T21:21:41;17.40;25.40
939;DHT22;456;53.584;9.968;2024-01-11T21:24:06;17.40;25.40
939;DHT22;456;53.584;9.968;2024-01-11T21:26:32;17.40;25.40
939;DHT22;456;53.584;9.968;2024-01-11T21:28:58;17.40;25.50
939;DHT22;456;53.584;9.968;2024-01-11T21:31:25;17.40;25.50
939;DHT22;456;53.584;9.968;2024-01-11T21:33:52;17.40;25.50
939;DHT22;456;53.584;9.968;2024-01-11T21:36:18;17.40;25.50
939;DHT22;456;53.584;9.968;2024-01-11T21:38:50;17.50;25.60
939;DHT22;456;53.584;9.968;2024-01-11T21:41:17;17.40;25.50
939;DHT22;456;53.584;9.968;2024-01-11T21:43:42;17.40;25.60
939;DHT22;456;53.584;9.968;2024-01-11T21:46:08;17.40;25.70
939;DHT22;456;53.584;9.968;2024-01-11T21:48:34;17.40;25.80
939;DHT22;456;53.584;9.968;2024-01-11T21:50:59;17.40;25.60
939;DHT22;456;53.584;9.968;2024-01-11T21:53:25;17.40;25.60
939;DHT22;456;53.584;9.968;2024-01-11T21:55:55;17.40;25.60
939;DHT22;456;53.584;9.968;2024-01-11T21:58:21;17.40;25.80
939;DHT22;456;53.584;9.968;2024-01-11T22:00:48;17.50;25.90
939;DHT22;456;53.584;9.968;2024-01-11T22:03:21;17.50;26.50
939;DHT22;456;53.584;9.968;2024-01-11T22:05:46;17.50;25.90
939;DHT22;456;53.584;9.968;2024-01-11T22:08:12;17.50;26.00
939;DHT22;456;53.584;9.968;2024-01-11T22:10:38;17.40;25.80
939;DHT22;456;53.584;9.968;2024-01-11T22:13:03;17.50;25.80
939;DHT22;456;53.584;9.968;2024-01-11T22:15:29;17.50;25.90
939;DHT22;456;53.584;9.968;2024-01-11T22:17:54;17.50;25.80
939;DHT22;456;53.584;9.968;2024-01-11T22:20:20;17.40;25.70
939;DHT22;456;53.584;9.968;2024-01-11T22:22:46;17.50;25.80
939;DHT22;456;53.584;9.968;2024-01-11T22:25:11;17.50;25.70
939;DHT22;456;53.584;9.968;2024-01-11T22:27:37;17.50;25.80
939;DHT22;456;53.584;9.968;2024-01-11T22:30:03;17.50;25.70
939;DHT22;456;53.584;9.968;2024-01-11T22:32:34;17.40;25.70
939;DHT22;456;53.584;9.968;2024-01-11T22:35:02;17.50;25.80
939;DHT22;456;53.584;9.968;2024-01-11T22:37:29;17.40;25.70
939;DHT22;456;53.584;9.968;2024-01-11T22:39:54;17.50;25.80
939;DHT22;456;53.584;9.968;2024-01-11T22:42:20;17.50;25.70
939;DHT22;456;53.584;9.968;2024-01-11T22:44:46;17.50;25.80
939;DHT22;456;53.584;9.968;2024-01-11T22:47:12;17.50;25.70
939;DHT22;456;53.584;9.968;2024-01-11T22:49:38;17.50;25.80
939;DHT22;456;53.584;9.968;2024-01-11T22:52:05;17.50;25.70
939;DHT22;456;53.584;9.968;2024-01-11T22:54:30;17.50;25.70
939;DHT22;456;53.584;9.968;2024-01-11T22:56:56;17.40;25.70
939;DHT22;456;53.584;9.968;2024-01-11T22:59:22;17.50;25.90
939;DHT22;456;53.584;9.968;2024-01-11T23:01:49;17.50;25.80
939;DHT22;456;53.584;9.968;2024-01-11T23:04:14;17.50;25.80
939;DHT22;456;53.584;9.968;2024-01-11T23:06:40;17.50;25.70
939;DHT22;456;53.584;9.968;2024-01-11T23:09:05;17.40;25.70
939;DHT22;456;53.584;9.968;2024-01-11T23:11:36;17.50;26.10
939;DHT22;456;53.584;9.968;2024-01-11T23:14:01;17.50;25.80
939;DHT22;456;53.584;9.968;2024-01-11T23:16:27;17.50;25.90
939;DHT22;456;53.584;9.968;2024-01-11T23:18:54;17.50;26.00
939;DHT22;456;53.584;9.968;2024-01-11T23:21:19;17.50;25.80
939;DHT22;456;53.584;9.968;2024-01-11T23:23:46;17.50;25.70
939;DHT22;456;53.584;9.968;2024-01-11T23:26:12;17.50;25.50
939;DHT22;456;53.584;9.968;2024-01-11T23:28:37;17.60;25.70
939;DHT22;456;53.584;9.968;2024-01-11T23:31:03;17.50;25.70
939;DHT22;456;53.584;9.968;2024-01-11T23:33:29;17.50;25.70
939;DHT22;456;53.584;9.968;2024-01-11T23:35:55;17.50;25.80
939;DHT22;456;53.584;9.968;2024-01-11T23:38:20;17.50;25.80
939;DHT22;456;53.584;9.968;2024-01-11T23:40:46;17.50;25.70
939;DHT22;456;53.584;9.968;2024-01-11T23:43:12;17.50;25.60
939;DHT22;456;53.584;9.968;2024-01-11T23:45:37;17.50;25.80
939;DHT22;456;53.584;9.968;2024-01-11T23:48:03;17.50;25.80
939;DHT22;456;53.584;9.968;2024-01-11T23:50:28;17.50;25.60
939;DHT22;456;53.584;9.968;2024-01-11T23:52:54;17.50;25.60
939;DHT22;456;53.584;9.968;2024-01-11T23:55:20;17.50;25.60
939;DHT22;456;53.584;9.968;2024-01-11T23:57:45;17.50;25.70
